Eagle, South Dakota
Current Conditions -  °F | °C
As of 4:15 PM on Thursday 23 Oct 2014 (Local Time) from K9V9 Reporting Station
Clear Clear  
Wind Chill: 72°   Ceiling: Unl
Heat Index: 72°   Visibility: 10mi
Dew Point: 34°   Wind: 0mph
Humidity: 25%   Direction: NA
Pressure: 29.89"   Gusts: NA
Location:  43.4255°N, 98.9806°W
Report Text: K9V9 232115Z AUTO 00000KT 10SM CLR 22/01 A2989 RMK AO2 T02200012
Loading
Personal Weather Stations






























Interactive Weather Map
Tropical Storm Tracking
New forecast layout! Learn more

10-Day Weather Forecast

Advertisements
Track Severe Weather on mobile